createdAt,value
2018-09-18T00:00:09.847Z,0
2018-09-18T00:01:09.593Z,0
2018-09-18T00:02:09.281Z,0
2018-09-18T00:03:09.270Z,0
2018-09-18T00:04:09.535Z,0
2018-09-18T00:05:09.534Z,0
2018-09-18T00:06:09.498Z,0
2018-09-18T00:07:09.493Z,0
2018-09-18T00:08:08.947Z,0
2018-09-18T00:09:09.758Z,0
2018-09-18T00:10:09.716Z,0
2018-09-18T00:11:09.191Z,0
2018-09-18T00:12:09.169Z,0
2018-09-18T00:13:08.885Z,0
2018-09-18T00:14:09.412Z,0
2018-09-18T00:15:09.124Z,0
2018-09-18T00:16:08.842Z,0
2018-09-18T00:17:09.367Z,0
2018-09-18T00:18:09.607Z,0
2018-09-18T00:19:09.614Z,0
2018-09-18T00:20:09.327Z,0
2018-09-18T00:21:09.053Z,0
2018-09-18T00:22:09.301Z,0
2018-09-18T00:23:09.598Z,0
2018-09-18T00:24:09.266Z,0
2018-09-18T00:25:08.989Z,0
2018-09-18T00:26:09.512Z,0
2018-09-18T00:27:08.970Z,0
2018-09-18T00:28:09.220Z,0
2018-09-18T00:29:09.473Z,0
2018-09-18T00:30:09.451Z,0
2018-09-18T00:31:08.915Z,0
2018-09-18T00:32:08.904Z,0
2018-09-18T00:33:09.159Z,0
2018-09-18T00:34:09.137Z,0
2018-09-18T00:35:08.863Z,0
2018-09-18T00:36:08.853Z,0
2018-09-18T00:37:09.105Z,0
2018-09-18T00:38:09.359Z,0
2018-09-18T00:39:09.343Z,0
2018-09-18T00:40:09.335Z,0
2018-09-18T00:41:08.799Z,0
2018-09-18T00:42:08.769Z,0
2018-09-18T00:43:09.298Z,0
2018-09-18T00:44:09.483Z,0
2018-09-18T00:45:08.738Z,0
2018-09-18T00:46:08.995Z,0
2018-09-18T00:47:08.972Z,0
2018-09-18T00:48:08.436Z,0
2018-09-18T00:49:08.718Z,0
2018-09-18T00:50:08.946Z,0
2018-09-18T00:51:08.920Z,0
2018-09-18T00:52:08.921Z,0
2018-09-18T00:53:09.166Z,0
2018-09-18T00:54:09.149Z,0
2018-09-18T00:55:08.876Z,0
2018-09-18T00:56:08.863Z,0
2018-09-18T00:57:08.855Z,0
2018-09-18T00:58:09.104Z,0
2018-09-18T00:59:08.557Z,0
2018-09-18T01:00:08.819Z,0
2018-09-18T01:01:08.794Z,0
2018-09-18T01:02:08.525Z,0
2018-09-18T01:03:08.775Z,0
2018-09-18T01:04:08.761Z,0
2018-09-18T01:05:08.732Z,0
2018-09-18T01:06:08.985Z,0
2018-09-18T01:07:08.831Z,0
2018-09-18T01:08:08.700Z,0
2018-09-18T01:09:08.712Z,0
2018-09-18T01:10:08.427Z,0
2018-09-18T01:11:08.687Z,0
2018-09-18T01:12:08.928Z,0
2018-09-18T01:13:08.904Z,0
2018-09-18T01:14:08.641Z,0
2018-09-18T01:15:08.351Z,0
2018-09-18T01:16:08.873Z,0
2018-09-18T01:17:08.586Z,0
2018-09-18T01:18:08.567Z,0
2018-09-18T01:19:08.561Z,0
2018-09-18T01:20:08.554Z,0
2018-09-18T01:21:08.806Z,0
2018-09-18T01:22:08.254Z,0
2018-09-18T01:23:08.505Z,0
2018-09-18T01:24:08.236Z,0
2018-09-18T01:25:08.478Z,0
2018-09-18T01:26:08.740Z,0
2018-09-18T01:27:07.932Z,0
2018-09-18T01:28:08.712Z,0
2018-09-18T01:29:08.164Z,0
2018-09-18T01:30:08.157Z,0
2018-09-18T01:31:08.715Z,0
2018-09-18T01:32:08.397Z,0
2018-09-18T01:33:08.373Z,0
2018-09-18T01:34:08.366Z,0
2018-09-18T01:35:08.626Z,0
2018-09-18T01:36:08.338Z,0
2018-09-18T01:37:08.105Z,0
2018-09-18T01:38:08.320Z,0
2018-09-18T01:39:08.311Z,0
2018-09-18T01:40:08.028Z,0
2018-09-18T01:41:08.282Z,0
2018-09-18T01:42:08.257Z,0
2018-09-18T01:43:08.247Z,0
2018-09-18T01:44:08.229Z,0
2018-09-18T01:45:08.225Z,0
2018-09-18T01:46:08.473Z,0
2018-09-18T01:47:08.196Z,0
2018-09-18T01:48:07.911Z,0
2018-09-18T01:49:08.441Z,0
2018-09-18T01:50:08.418Z,0
2018-09-18T01:51:08.146Z,0
2018-09-18T01:52:08.390Z,0
2018-09-18T01:53:07.857Z,0
2018-09-18T01:54:07.832Z,0
2018-09-18T01:55:08.345Z,0
2018-09-18T01:56:08.079Z,0
2018-09-18T01:57:08.061Z,0
2018-09-18T01:58:08.058Z,0
2018-09-18T01:59:08.300Z,0
2018-09-18T02:00:08.012Z,0
2018-09-18T02:01:07.742Z,0
2018-09-18T02:02:07.733Z,0
2018-09-18T02:03:07.980Z,0
2018-09-18T02:04:07.967Z,0
2018-09-18T02:05:08.213Z,0
2018-09-18T02:06:07.677Z,0
2018-09-18T02:07:07.925Z,0
2018-09-18T02:08:07.652Z,0
2018-09-18T02:09:08.165Z,0
2018-09-18T02:10:07.623Z,0
2018-09-18T02:11:08.137Z,0
2018-09-18T02:12:08.121Z,0
2018-09-18T02:13:07.589Z,0
2018-09-18T02:14:07.830Z,0
2018-09-18T02:15:07.556Z,0
2018-09-18T02:16:07.815Z,0
2018-09-18T02:17:07.531Z,0
2018-09-18T02:18:07.569Z,0
2018-09-18T02:19:07.506Z,0
2018-09-18T02:20:07.490Z,0
2018-09-18T02:21:07.214Z,0
2018-09-18T02:22:07.729Z,0
2018-09-18T02:23:07.977Z,0
2018-09-18T02:24:07.698Z,0
2018-09-18T02:25:07.957Z,0
2018-09-18T02:26:07.668Z,0
2018-09-18T02:27:07.665Z,0
2018-09-18T02:28:07.387Z,0
2018-09-18T02:29:07.914Z,0
2018-09-18T02:30:07.630Z,0
2018-09-18T02:31:07.605Z,0
2018-09-18T02:32:07.602Z,0
2018-09-18T02:33:07.331Z,0
2018-09-18T02:34:07.569Z,0
2018-09-18T02:35:07.032Z,0
2018-09-18T02:36:07.539Z,0
2018-09-18T02:37:07.528Z,0
2018-09-18T02:38:07.526Z,0
2018-09-18T02:39:07.241Z,0
2018-09-18T02:40:07.494Z,0
2018-09-18T02:41:07.737Z,0
2018-09-18T02:42:07.739Z,0
2018-09-18T02:43:07.704Z,0
2018-09-18T02:44:07.903Z,0
2018-09-18T02:45:07.437Z,0
2018-09-18T02:46:07.405Z,0
2018-09-18T02:47:07.656Z,0
2018-09-18T02:48:07.390Z,0
2018-09-18T02:49:07.104Z,0
2018-09-18T02:50:07.360Z,0
2018-09-18T02:51:07.620Z,0
2018-09-18T02:52:07.327Z,0
2018-09-18T02:53:07.309Z,0
2018-09-18T02:54:07.584Z,0
2018-09-18T02:55:07.553Z,0
2018-09-18T02:56:06.749Z,0
2018-09-18T02:57:06.999Z,0
2018-09-18T02:58:07.263Z,0
2018-09-18T02:59:07.234Z,0
2018-09-18T03:00:07.505Z,0
2018-09-18T03:01:06.943Z,0
2018-09-18T03:02:07.459Z,0
2018-09-18T03:03:07.182Z,0
2018-09-18T03:04:07.167Z,0
2018-09-18T03:05:07.164Z,0
2018-09-18T03:06:07.412Z,0
2018-09-18T03:07:07.395Z,0
2018-09-18T03:08:07.375Z,0
2018-09-18T03:09:07.112Z,0
2018-09-18T03:10:07.093Z,0
2018-09-18T03:11:06.873Z,0
2018-09-18T03:12:06.818Z,0
2018-09-18T03:13:07.321Z,0
2018-09-18T03:14:07.301Z,0
2018-09-18T03:15:07.026Z,0
2018-09-18T03:16:06.745Z,0
2018-09-18T03:17:07.261Z,0
2018-09-18T03:18:07.246Z,0
2018-09-18T03:19:06.971Z,0
2018-09-18T03:20:06.953Z,0
2018-09-18T03:21:07.861Z,0
2018-09-18T03:22:06.944Z,0
2018-09-18T03:23:07.188Z,0
2018-09-18T03:24:06.901Z,0
2018-09-18T03:25:06.626Z,0
2018-09-18T03:26:06.872Z,0
2018-09-18T03:27:06.609Z,0
2018-09-18T03:28:06.854Z,0
2018-09-18T03:29:07.097Z,0
2018-09-18T03:30:06.558Z,0
2018-09-18T03:31:06.814Z,0
2018-09-18T03:32:06.535Z,0
2018-09-18T03:33:06.522Z,0
2018-09-18T03:34:06.800Z,0
2018-09-18T03:35:06.754Z,0
2018-09-18T03:36:07.007Z,0
2018-09-18T03:37:06.990Z,0
2018-09-18T03:38:06.973Z,0
2018-09-18T03:39:06.976Z,0
2018-09-18T03:40:06.691Z,0
2018-09-18T03:41:06.937Z,0
2018-09-18T03:42:06.398Z,0
2018-09-18T03:43:06.393Z,0
2018-09-18T03:44:06.638Z,0
2018-09-18T03:45:06.375Z,0
2018-09-18T03:46:06.621Z,0
2018-09-18T03:47:06.611Z,0
2018-09-18T03:48:06.586Z,0
2018-09-18T03:49:06.854Z,0
2018-09-18T03:50:06.829Z,0
2018-09-18T03:51:06.287Z,0
2018-09-18T03:52:06.535Z,0
2018-09-18T03:53:06.523Z,0
2018-09-18T03:54:06.243Z,0
2018-09-18T03:55:06.524Z,0
2018-09-18T03:56:06.216Z,0
2018-09-18T03:57:06.477Z,0
2018-09-18T03:58:06.726Z,0
2018-09-18T03:59:06.187Z,0
2018-09-18T04:00:06.431Z,0
2018-09-18T04:01:06.420Z,0
2018-09-18T04:02:06.133Z,0
2018-09-18T04:03:06.492Z,0
2018-09-18T04:04:06.389Z,0
2018-09-18T04:05:06.623Z,0
2018-09-18T04:06:06.611Z,0
2018-09-18T04:07:06.064Z,0
2018-09-18T04:08:06.316Z,0
2018-09-18T04:09:06.300Z,0
2018-09-18T04:10:06.298Z,0
2018-09-18T04:11:06.019Z,0
2018-09-18T04:12:06.531Z,0
2018-09-18T04:13:06.262Z,0
2018-09-18T04:14:06.244Z,0
2018-09-18T04:15:06.274Z,0
2018-09-18T04:16:06.478Z,0
2018-09-18T04:17:06.472Z,0
2018-09-18T04:18:06.181Z,0
2018-09-18T04:19:06.174Z,0
2018-09-18T04:20:06.153Z,0
2018-09-18T04:21:05.888Z,0
2018-09-18T04:22:06.395Z,0
2018-09-18T04:23:05.857Z,0
2018-09-18T04:24:05.837Z,0
2018-09-18T04:25:06.089Z,0
2018-09-18T04:26:06.081Z,0
2018-09-18T04:27:06.338Z,0
2018-09-18T04:28:06.316Z,0
2018-09-18T04:29:06.041Z,0
2018-09-18T04:30:06.029Z,0
2018-09-18T04:31:05.757Z,0
2018-09-18T04:32:05.740Z,0
2018-09-18T04:33:05.984Z,0
2018-09-18T04:34:06.249Z,0
2018-09-18T04:35:06.221Z,0
2018-09-18T04:36:06.224Z,0
2018-09-18T04:37:05.942Z,0
2018-09-18T04:38:05.657Z,0
2018-09-18T04:39:05.652Z,0
2018-09-18T04:40:05.898Z,0
2018-09-18T04:41:05.895Z,0
2018-09-18T04:42:05.605Z,0
2018-09-18T04:43:06.126Z,0
2018-09-18T04:44:06.002Z,4
2018-09-18T04:45:05.566Z,4
2018-09-18T04:46:05.364Z,0
2018-09-18T04:47:05.803Z,4
2018-09-18T04:48:05.795Z,4
2018-09-18T04:49:05.511Z,4
2018-09-18T04:50:05.759Z,8
2018-09-18T04:51:05.785Z,8
2018-09-18T04:52:05.999Z,12
2018-09-18T04:53:05.725Z,12
2018-09-18T04:54:05.711Z,12
2018-09-18T04:55:06.056Z,16
2018-09-18T04:56:05.680Z,20
2018-09-18T04:57:05.680Z,24
2018-09-18T04:58:05.920Z,24
2018-09-18T04:59:05.644Z,28
2018-09-18T05:00:05.100Z,32
2018-09-18T05:01:05.614Z,36
2018-09-18T05:02:06.155Z,44
2018-09-18T05:03:05.597Z,48
2018-09-18T05:04:05.317Z,56
2018-09-18T05:05:05.625Z,60
2018-09-18T05:06:05.554Z,68
2018-09-18T05:07:05.540Z,76
2018-09-18T05:08:05.533Z,84
2018-09-18T05:09:05.521Z,92
2018-09-18T05:10:05.238Z,100
2018-09-18T05:11:05.490Z,112
2018-09-18T05:12:05.735Z,124
2018-09-18T05:13:05.469Z,136
2018-09-18T05:14:05.645Z,148
2018-09-18T05:15:05.435Z,156
2018-09-18T05:16:05.431Z,168
2018-09-18T05:17:05.425Z,184
2018-09-18T05:18:05.712Z,196
2018-09-18T05:19:05.393Z,208
2018-09-18T05:20:05.637Z,224
2018-09-18T05:21:05.090Z,240
2018-09-18T05:22:05.607Z,260
2018-09-18T05:23:05.066Z,276
2018-09-18T05:24:05.368Z,292
2018-09-18T05:25:05.037Z,316
2018-09-18T05:26:04.766Z,332
2018-09-18T05:27:05.543Z,352
2018-09-18T05:28:05.533Z,372
2018-09-18T05:29:05.525Z,396
2018-09-18T05:30:05.244Z,416
2018-09-18T05:31:05.233Z,440
2018-09-18T05:32:04.953Z,464
2018-09-18T05:33:05.207Z,484
2018-09-18T05:34:05.448Z,504
2018-09-18T05:35:05.170Z,524
2018-09-18T05:36:05.162Z,548
2018-09-18T05:37:05.151Z,572
2018-09-18T05:38:05.134Z,596
2018-09-18T05:39:05.382Z,612
2018-09-18T05:40:04.845Z,632
2018-09-18T05:41:05.090Z,644
2018-09-18T05:42:04.969Z,660
2018-09-18T05:43:05.339Z,676
2018-09-18T05:44:05.064Z,692
2018-09-18T05:45:05.304Z,704
2018-09-18T05:46:05.029Z,720
2018-09-18T05:47:04.760Z,732
2018-09-18T05:48:04.873Z,748
2018-09-18T05:49:04.996Z,760
2018-09-18T05:50:05.246Z,776
2018-09-18T05:51:04.973Z,788
2018-09-18T05:52:04.949Z,800
2018-09-18T05:53:05.205Z,812
2018-09-18T05:54:04.658Z,824
2018-09-18T05:55:05.183Z,840
2018-09-18T05:56:05.183Z,852
2018-09-18T05:57:04.891Z,864
2018-09-18T05:58:04.871Z,876
2018-09-18T05:59:04.870Z,888
2018-09-18T06:00:04.846Z,900
2018-09-18T06:01:04.304Z,908
2018-09-18T06:02:04.857Z,924
2018-09-18T06:03:04.820Z,932
2018-09-18T06:04:05.072Z,940
2018-09-18T06:05:04.522Z,952
2018-09-18T06:06:04.512Z,964
2018-09-18T06:07:04.770Z,968
2018-09-18T06:08:05.014Z,980
2018-09-18T06:09:04.734Z,992
2018-09-18T06:10:04.993Z,1000
2018-09-18T06:11:04.710Z,1008
2018-09-18T06:12:04.961Z,1016
2018-09-18T06:13:04.688Z,1028
2018-09-18T06:14:04.673Z,1036
2018-09-18T06:15:04.669Z,1048
2018-09-18T06:16:04.654Z,1056
2018-09-18T06:17:04.378Z,1064
2018-09-18T06:18:04.619Z,1072
2018-09-18T06:19:04.828Z,1080
2018-09-18T06:20:04.600Z,1088
2018-09-18T06:21:04.057Z,1100
2018-09-18T06:22:04.834Z,1108
2018-09-18T06:23:04.567Z,1116
2018-09-18T06:24:04.281Z,1124
2018-09-18T06:25:04.274Z,1128
2018-09-18T06:26:04.316Z,1136
2018-09-18T06:27:04.504Z,1144
2018-09-18T06:28:04.764Z,1148
2018-09-18T06:29:04.493Z,1152
2018-09-18T06:30:04.478Z,1164
2018-09-18T06:31:04.728Z,1168
2018-09-18T06:32:04.182Z,1176
2018-09-18T06:33:03.906Z,1180
2018-09-18T06:34:04.424Z,1188
2018-09-18T06:35:04.149Z,1192
2018-09-18T06:36:04.447Z,1204
2018-09-18T06:37:04.677Z,1208
2018-09-18T06:38:04.110Z,1212
2018-09-18T06:39:04.629Z,1224
2018-09-18T06:40:04.346Z,1228
2018-09-18T06:41:04.342Z,1236
2018-09-18T06:42:04.587Z,1240
2018-09-18T06:43:04.587Z,1244
2018-09-18T06:44:04.905Z,1248
2018-09-18T06:45:04.029Z,1256
2018-09-18T06:46:04.273Z,1260
2018-09-18T06:47:04.004Z,1268
2018-09-18T06:48:04.069Z,1272
2018-09-18T06:49:04.243Z,1280
2018-09-18T06:50:04.234Z,1284
2018-09-18T06:51:04.477Z,1288
2018-09-18T06:52:04.200Z,1292
2018-09-18T06:53:04.195Z,1300
2018-09-18T06:54:04.179Z,1304
2018-09-18T06:55:04.168Z,1308
2018-09-18T06:56:03.905Z,1316
2018-09-18T06:57:04.146Z,1320
2018-09-18T06:58:03.890Z,1324
2018-09-18T06:59:04.125Z,1328
2018-09-18T07:00:03.845Z,1336
2018-09-18T07:01:04.103Z,1336
2018-09-18T07:02:04.085Z,1344
2018-09-18T07:03:04.075Z,1348
2018-09-18T07:04:04.074Z,1356
2018-09-18T07:05:04.324Z,1360
2018-09-18T07:06:04.041Z,1364
2018-09-18T07:07:04.300Z,1368
2018-09-18T07:08:04.021Z,1372
2018-09-18T07:09:03.749Z,1380
2018-09-18T07:10:04.009Z,1384
2018-09-18T07:11:03.721Z,1388
2018-09-18T07:12:03.973Z,1400
2018-09-18T07:13:04.232Z,1404
2018-09-18T07:14:03.692Z,1412
2018-09-18T07:15:03.681Z,1416
2018-09-18T07:16:03.663Z,1424
2018-09-18T07:17:03.941Z,1432
2018-09-18T07:18:03.459Z,1436
2018-09-18T07:19:03.906Z,1444
2018-09-18T07:20:03.888Z,1452
2018-09-18T07:21:03.617Z,1460
2018-09-18T07:22:03.598Z,1468
2018-09-18T07:23:03.591Z,1472
2018-09-18T07:24:03.853Z,1480
2018-09-18T07:25:04.173Z,1492
2018-09-18T07:26:04.091Z,1500
2018-09-18T07:27:03.561Z,1512
2018-09-18T07:28:03.808Z,1524
2018-09-18T07:29:03.801Z,1540
2018-09-18T07:30:03.781Z,1552
2018-09-18T07:31:03.771Z,1564
2018-09-18T07:32:04.024Z,1568
2018-09-18T07:33:03.486Z,1580
2018-09-18T07:34:03.585Z,1592
2018-09-18T07:35:04.021Z,1612
2018-09-18T07:36:04.084Z,1616
2018-09-18T07:37:03.721Z,1624
2018-09-18T07:38:03.710Z,1636
2018-09-18T07:39:03.437Z,1640
2018-09-18T07:40:03.157Z,1648
2018-09-18T07:41:03.474Z,1652
2018-09-18T07:42:03.399Z,1652
2018-09-18T07:43:03.655Z,1656
2018-09-18T07:44:03.640Z,1664
2018-09-18T07:45:03.369Z,1668
2018-09-18T07:46:03.358Z,1672
2018-09-18T07:47:03.352Z,1680
2018-09-18T07:48:03.869Z,1688
2018-09-18T07:49:03.597Z,1704
2018-09-18T07:50:03.853Z,1732
2018-09-18T07:51:03.581Z,1760
2018-09-18T07:52:03.594Z,1788
2018-09-18T07:53:03.290Z,1824
2018-09-18T07:54:03.286Z,1860
2018-09-18T07:55:03.534Z,1864
2018-09-18T07:56:03.274Z,1876
2018-09-18T07:57:03.781Z,1920
2018-09-18T07:58:03.771Z,1932
2018-09-18T07:59:03.761Z,1960
2018-09-18T08:00:03.492Z,1944
2018-09-18T08:01:02.954Z,1964
2018-09-18T08:02:03.478Z,1980
2018-09-18T08:03:03.551Z,1992
2018-09-18T08:04:03.719Z,2024
2018-09-18T08:05:03.466Z,2084
2018-09-18T08:06:03.437Z,2108
2018-09-18T08:07:03.636Z,2012
2018-09-18T08:08:03.687Z,2144
2018-09-18T08:09:03.407Z,2156
2018-09-18T08:10:03.142Z,2232
2018-09-18T08:11:03.661Z,2248
2018-09-18T08:12:03.651Z,2260
2018-09-18T08:13:03.116Z,2204
2018-09-18T08:14:03.102Z,2180
2018-09-18T08:15:03.624Z,2128
2018-09-18T08:16:03.355Z,2220
2018-09-18T08:17:03.603Z,2396
2018-09-18T08:18:03.073Z,2444
2018-09-18T08:19:04.029Z,2360
2018-09-18T08:20:03.050Z,2244
2018-09-18T08:21:03.306Z,2176
2018-09-18T08:22:03.782Z,2156
2018-09-18T08:23:03.023Z,2152
2018-09-18T08:24:03.014Z,2152
2018-09-18T08:25:03.451Z,2152
2018-09-18T08:26:03.028Z,2156
2018-09-18T08:27:03.534Z,2156
2018-09-18T08:28:02.985Z,2132
2018-09-18T08:29:03.249Z,2148
2018-09-18T08:30:03.527Z,2156
2018-09-18T08:31:03.503Z,2156
2018-09-18T08:32:02.962Z,2144
2018-09-18T08:33:03.199Z,2140
2018-09-18T08:34:03.485Z,2144
2018-09-18T08:35:03.207Z,2152
2018-09-18T08:36:03.191Z,2160
2018-09-18T08:37:03.200Z,2164
2018-09-18T08:38:03.180Z,2164
2018-09-18T08:39:03.184Z,2176
2018-09-18T08:40:04.136Z,2188
2018-09-18T08:41:03.458Z,2200
2018-09-18T08:42:02.882Z,2212
2018-09-18T08:43:03.436Z,2232
2018-09-18T08:44:03.190Z,2240
2018-09-18T08:45:02.907Z,2240
2018-09-18T08:46:03.406Z,2248
2018-09-18T08:47:03.117Z,2264
2018-09-18T08:48:03.098Z,2264
2018-09-18T08:49:03.231Z,2276
2018-09-18T08:50:02.563Z,2300
2018-09-18T08:51:02.831Z,2320
2018-09-18T08:52:04.004Z,2348
2018-09-18T08:53:03.234Z,2372
2018-09-18T08:54:03.436Z,2388
2018-09-18T08:55:02.878Z,2388
2018-09-18T08:56:03.447Z,2384
2018-09-18T08:57:03.443Z,2408
2018-09-18T08:58:02.799Z,2400
2018-09-18T08:59:02.770Z,2440
2018-09-18T09:00:02.748Z,2444
2018-09-18T09:01:02.991Z,2460
2018-09-18T09:02:03.025Z,2444
2018-09-18T09:03:03.293Z,2688
2018-09-18T09:04:02.835Z,2520
2018-09-18T09:05:03.162Z,2436
2018-09-18T09:06:03.832Z,2396
2018-09-18T09:07:02.425Z,2456
2018-09-18T09:08:03.762Z,2548
2018-09-18T09:09:03.294Z,2560
2018-09-18T09:10:03.180Z,2520
2018-09-18T09:11:03.586Z,2520
2018-09-18T09:12:02.936Z,2532
2018-09-18T09:13:02.951Z,2548
2018-09-18T09:14:02.937Z,2564
2018-09-18T09:15:03.155Z,2580
2018-09-18T09:16:03.237Z,2608
2018-09-18T09:17:02.620Z,2628
2018-09-18T09:18:03.220Z,2636
2018-09-18T09:19:02.612Z,2656
2018-09-18T09:20:02.907Z,2680
2018-09-18T09:21:03.703Z,2700
2018-09-18T09:22:03.815Z,2708
2018-09-18T09:23:03.399Z,2728
2018-09-18T09:24:02.871Z,2740
2018-09-18T09:25:03.147Z,2908
2018-09-18T09:26:02.573Z,2756
2018-09-18T09:27:03.002Z,2756
2018-09-18T09:28:02.762Z,2760
2018-09-18T09:29:03.198Z,3160
2018-09-18T09:30:02.793Z,2872
2018-09-18T09:31:02.575Z,2808
2018-09-18T09:32:03.251Z,2804
2018-09-18T09:33:02.808Z,2836
2018-09-18T09:34:02.781Z,2940
2018-09-18T09:35:02.802Z,2840
2018-09-18T09:36:02.780Z,2892
2018-09-18T09:37:03.075Z,2892
2018-09-18T09:38:02.809Z,2832
2018-09-18T09:39:02.990Z,2804
2018-09-18T09:40:03.016Z,2824
2018-09-18T09:41:02.722Z,2940
2018-09-18T09:42:02.719Z,2876
2018-09-18T09:43:02.979Z,2864
2018-09-18T09:44:03.066Z,2908
2018-09-18T09:45:03.318Z,2948
2018-09-18T09:46:02.689Z,2960
2018-09-18T09:47:02.946Z,2980
2018-09-18T09:48:02.690Z,3080
2018-09-18T09:49:02.670Z,3100
2018-09-18T09:50:02.973Z,3404
2018-09-18T09:51:02.487Z,3152
2018-09-18T09:52:02.658Z,3176
2018-09-18T09:53:02.649Z,3132
2018-09-18T09:54:02.661Z,3200
2018-09-18T09:55:02.651Z,3236
2018-09-18T09:56:02.378Z,3260
2018-09-18T09:57:03.385Z,3240
2018-09-18T09:58:02.880Z,3352
2018-09-18T09:59:02.352Z,3332
2018-09-18T10:00:02.608Z,3220
2018-09-18T10:01:02.599Z,3356
2018-09-18T10:02:02.857Z,3364
2018-09-18T10:03:03.278Z,3352
2018-09-18T10:04:02.856Z,3396
2018-09-18T10:05:02.581Z,3380
2018-09-18T10:06:02.570Z,3504
2018-09-18T10:07:02.824Z,3396
2018-09-18T10:08:02.829Z,4028
2018-09-18T10:09:02.866Z,4920
2018-09-18T10:10:02.286Z,3672
2018-09-18T10:11:03.312Z,3388
2018-09-18T10:12:02.536Z,3396
2018-09-18T10:13:02.266Z,3408
2018-09-18T10:14:02.271Z,3468
2018-09-18T10:15:02.793Z,4292
2018-09-18T10:16:02.249Z,3436
2018-09-18T10:17:02.514Z,3452
2018-09-18T10:18:03.029Z,3456
2018-09-18T10:19:02.491Z,3532
2018-09-18T10:20:02.760Z,3484
2018-09-18T10:21:02.497Z,4516
2018-09-18T10:22:02.740Z,4600
2018-09-18T10:23:02.762Z,3648
2018-09-18T10:24:02.518Z,2952
2018-09-18T10:25:02.065Z,3620
2018-09-18T10:26:02.950Z,3844
2018-09-18T10:27:02.897Z,4132
2018-09-18T10:28:02.802Z,9576
2018-09-18T10:29:02.517Z,3072
2018-09-18T10:30:02.480Z,13928
2018-09-18T10:31:02.457Z,49952
2018-09-18T10:32:02.511Z,17152
2018-09-18T10:33:02.263Z,4720
2018-09-18T10:34:02.679Z,5628
2018-09-18T10:35:02.168Z,25696
2018-09-18T10:36:02.191Z,6412
2018-09-18T10:37:02.532Z,4372
2018-09-18T10:38:02.156Z,4344
2018-09-18T10:39:02.434Z,4132
2018-09-18T10:40:02.691Z,3592
2018-09-18T10:41:03.478Z,4460
2018-09-18T10:42:03.288Z,5144
2018-09-18T10:43:02.332Z,9088
2018-09-18T10:44:02.389Z,3692
2018-09-18T10:45:02.767Z,10304
2018-09-18T10:46:02.645Z,17836
2018-09-18T10:47:02.647Z,8740
2018-09-18T10:48:02.651Z,9356
2018-09-18T10:49:02.086Z,18604
2018-09-18T10:50:02.595Z,3952
2018-09-18T10:51:02.061Z,4748
2018-09-18T10:52:02.344Z,6012
2018-09-18T10:53:02.320Z,5504
2018-09-18T10:54:02.327Z,25632
2018-09-18T10:55:02.352Z,7016
2018-09-18T10:56:02.323Z,7208
2018-09-18T10:57:02.035Z,5540
2018-09-18T10:58:02.561Z,6064
2018-09-18T10:59:02.291Z,6068
2018-09-18T11:00:02.611Z,4920
2018-09-18T11:01:02.317Z,5288
2018-09-18T11:02:02.598Z,5360
2018-09-18T11:03:02.589Z,5908
2018-09-18T11:04:02.263Z,6052
2018-09-18T11:05:02.576Z,6176
2018-09-18T11:06:02.318Z,6460
2018-09-18T11:07:02.726Z,6348
2018-09-18T11:08:02.157Z,6308
2018-09-18T11:09:02.393Z,6580
2018-09-18T11:10:02.767Z,19316
2018-09-18T11:11:02.343Z,8184
2018-09-18T11:12:02.176Z,7180
2018-09-18T11:13:01.716Z,11984
2018-09-18T11:14:03.003Z,7652
2018-09-18T11:15:02.565Z,9144
2018-09-18T11:16:02.718Z,7896
2018-09-18T11:17:02.764Z,8824
2018-09-18T11:18:02.410Z,9444
2018-09-18T11:19:02.139Z,8996
2018-09-18T11:20:02.724Z,7864
2018-09-18T11:21:02.376Z,19616
2018-09-18T11:22:02.411Z,12096
2018-09-18T11:23:02.251Z,13888
2018-09-18T11:24:02.407Z,22560
2018-09-18T11:25:02.509Z,18528
2018-09-18T11:26:16.833Z,17440
2018-09-18T11:27:02.500Z,28352
2018-09-18T11:28:02.205Z,47104
2018-09-18T11:29:02.533Z,43264
2018-09-18T11:30:02.461Z,57472
2018-09-18T11:31:02.170Z,57120
2018-09-18T11:32:02.172Z,54464
2018-09-18T11:33:02.792Z,57824
2018-09-18T11:34:02.523Z,57600
2018-09-18T11:35:02.499Z,55488
2018-09-18T11:36:02.178Z,54816
2018-09-18T11:37:02.425Z,57024
2018-09-18T11:38:02.417Z,60800
2018-09-18T11:39:02.157Z,61888
2018-09-18T11:40:02.210Z,63072
2018-09-18T11:41:01.891Z,65728
2018-09-18T11:42:01.641Z,69696
2018-09-18T11:43:02.172Z,74880
2018-09-18T11:44:02.160Z,77984
2018-09-18T11:45:02.170Z,81184
2018-09-18T11:46:03.754Z,82688
2018-09-18T11:47:02.307Z,84480
2018-09-18T11:48:01.931Z,83520
2018-09-18T11:49:02.197Z,79840
2018-09-18T11:50:02.198Z,76096
2018-09-18T11:51:02.208Z,72640
2018-09-18T11:52:02.474Z,71072
2018-09-18T11:53:02.717Z,71648
2018-09-18T11:54:02.237Z,71168
2018-09-18T11:55:02.476Z,68960
2018-09-18T11:56:02.228Z,67488
2018-09-18T11:57:02.353Z,68256
2018-09-18T11:58:02.238Z,69376
2018-09-18T11:59:02.507Z,68000
2018-09-18T12:00:01.970Z,65120
2018-09-18T12:01:02.503Z,61184
2018-09-18T12:02:01.982Z,57216
2018-09-18T12:03:02.364Z,54880
2018-09-18T12:04:02.260Z,55168
2018-09-18T12:05:02.396Z,57856
2018-09-18T12:06:02.006Z,63008
2018-09-18T12:07:02.266Z,70784
2018-09-18T12:08:02.019Z,81536
2018-09-18T12:09:02.661Z,89472
2018-09-18T12:10:02.025Z,92480
2018-09-18T12:11:02.554Z,92416
2018-09-18T12:12:02.304Z,87392
2018-09-18T12:13:02.035Z,81568
2018-09-18T12:14:02.051Z,75872
2018-09-18T12:15:02.316Z,69280
2018-09-18T12:16:02.323Z,66080
2018-09-18T12:17:02.816Z,64096
2018-09-18T12:18:02.340Z,64224
2018-09-18T12:19:02.076Z,65088
2018-09-18T12:20:02.612Z,67360
2018-09-18T12:21:02.362Z,70112
2018-09-18T12:22:02.364Z,71776
2018-09-18T12:23:02.367Z,72800
2018-09-18T12:24:02.366Z,72672
2018-09-18T12:25:02.373Z,68736
2018-09-18T12:26:02.123Z,62752
2018-09-18T12:27:02.393Z,59168
2018-09-18T12:28:02.534Z,57856
2018-09-18T12:29:02.395Z,61920
2018-09-18T12:30:02.667Z,67872
2018-09-18T12:31:02.674Z,72096
2018-09-18T12:32:02.153Z,73408
2018-09-18T12:33:02.422Z,74016
2018-09-18T12:34:02.694Z,72256
2018-09-18T12:35:01.910Z,67840
2018-09-18T12:36:02.642Z,63296
2018-09-18T12:37:02.442Z,62048
2018-09-18T12:38:02.720Z,63104
2018-09-18T12:39:02.196Z,66432
2018-09-18T12:40:02.196Z,66528
2018-09-18T12:41:02.216Z,65376
2018-09-18T12:42:03.166Z,64544
2018-09-18T12:43:02.746Z,65600
2018-09-18T12:44:02.225Z,69696
2018-09-18T12:45:02.762Z,72832
2018-09-18T12:46:02.759Z,75936
2018-09-18T12:47:02.252Z,76224
2018-09-18T12:48:02.442Z,74176
2018-09-18T12:49:03.259Z,70752
2018-09-18T12:50:03.966Z,69024
2018-09-18T12:51:02.794Z,66624
2018-09-18T12:52:02.530Z,64032
2018-09-18T12:53:02.553Z,61952
2018-09-18T12:54:02.355Z,62112
2018-09-18T12:55:02.548Z,61696
2018-09-18T12:56:02.739Z,60192
2018-09-18T12:57:03.037Z,58304
2018-09-18T12:58:02.608Z,55808
2018-09-18T12:59:03.337Z,52288
2018-09-18T13:00:02.912Z,51520
2018-09-18T13:01:02.320Z,51424
2018-09-18T13:02:02.332Z,50272
2018-09-18T13:03:02.327Z,50304
2018-09-18T13:04:02.599Z,52640
2018-09-18T13:05:02.917Z,55360
2018-09-18T13:06:03.211Z,59744
2018-09-18T13:07:03.468Z,62944
2018-09-18T13:08:02.837Z,65376
2018-09-18T13:09:02.889Z,65312
2018-09-18T13:10:02.487Z,62400
2018-09-18T13:11:02.647Z,57632
2018-09-18T13:12:02.779Z,54336
2018-09-18T13:13:02.949Z,52864
2018-09-18T13:14:02.911Z,53184
2018-09-18T13:15:02.715Z,56192
2018-09-18T13:16:02.516Z,59744
2018-09-18T13:17:03.045Z,63840
2018-09-18T13:18:02.967Z,63456
2018-09-18T13:19:02.692Z,58688
2018-09-18T13:20:02.926Z,52160
2018-09-18T13:21:02.439Z,48896
2018-09-18T13:22:02.738Z,49856
2018-09-18T13:23:02.446Z,54976
2018-09-18T13:24:02.993Z,59520
2018-09-18T13:25:03.102Z,59808
2018-09-18T13:26:02.717Z,56704
2018-09-18T13:27:02.728Z,51936
2018-09-18T13:28:03.304Z,47648
2018-09-18T13:29:02.739Z,46368
2018-09-18T13:30:02.477Z,48704
2018-09-18T13:31:02.535Z,54080
2018-09-18T13:32:02.775Z,58208
2018-09-18T13:33:02.755Z,58240
2018-09-18T13:34:02.776Z,55680
2018-09-18T13:35:02.785Z,53664
2018-09-18T13:36:02.774Z,49728
2018-09-18T13:37:02.245Z,45984
2018-09-18T13:38:03.106Z,43872
2018-09-18T13:39:03.062Z,43904
2018-09-18T13:40:03.075Z,45312
2018-09-18T13:41:03.805Z,47904
2018-09-18T13:42:02.816Z,51104
2018-09-18T13:43:02.551Z,52416
2018-09-18T13:44:03.076Z,52096
2018-09-18T13:45:02.828Z,48256